Time;durP1;ratioP1;P1;durP2;ratioP2;P2;SDS_P1;SDS_P2;PMS_P1;PMS_P2;Temp;Humidity;BMP_temperature;BMP_pressure;BME280_temperature;BME280_humidity;BME280_pressure;Samples;Min_cycle;Max_cycle;Signal;HPM_P1;HPM_P2
2021/08/22 00:02:09;;;;;;;;;;;18.90;99.90;;;;;;5112039;28;20344;-72
2021/08/22 00:04:41;;;;;;;;;;;18.90;99.90;;;;;;5112352;28;20023;-72
2021/08/22 00:07:12;;;;;;;;;;;18.80;99.90;;;;;;5096059;28;19924;-72
2021/08/22 00:09:44;;;;;;;;;;;18.70;99.90;;;;;;5112100;28;20026;-71
2021/08/22 00:12:10;;;;;;;;;;;18.70;99.90;;;;;;5112918;28;20354;-72
2021/08/22 00:14:42;;;;;;;;;;;18.70;99.90;;;;;;5112070;28;20018;-72
2021/08/22 00:17:14;;;;;;;;;;;18.70;99.90;;;;;;5095953;28;19930;-72
2021/08/22 00:19:46;;;;;;;;;;;18.70;99.90;;;;;;5113027;28;19930;-73
2021/08/22 00:22:13;;;;;;;;;;;18.60;99.90;;;;;;5111614;28;20397;-72
2021/08/22 00:24:44;;;;;;;;;;;18.60;99.90;;;;;;5111837;28;20010;-72
2021/08/22 00:27:16;;;;;;;;;;;18.60;99.90;;;;;;5113082;27;20378;-72
2021/08/22 00:29:48;;;;;;;;;;;18.60;99.90;;;;;;5095171;28;20023;-72
2021/08/22 00:32:20;;;;;;;;;;;18.50;99.90;;;;;;5095140;28;20379;-71
2021/08/22 00:34:51;;;;;;;;;;;18.50;99.90;;;;;;5111934;28;20010;-72
2021/08/22 00:37:26;;;;;;;;;;;18.50;99.90;;;;;;5111386;28;19996;-72
2021/08/22 00:39:54;;;;;;;;;;;18.50;99.90;;;;;;5112816;28;19963;-73
2021/08/22 00:42:29;;;;;;;;;;;18.40;99.90;;;;;;5111310;28;19924;-72
2021/08/22 00:45:02;;;;;;;;;;;18.30;99.90;;;;;;5111440;28;19923;-72
2021/08/22 00:47:29;;;;;;;;;;;18.20;99.90;;;;;;5111631;28;20026;-72
2021/08/22 00:50:00;;;;;;;;;;;18.20;99.90;;;;;;5095157;28;19924;-72
2021/08/22 00:52:33;;;;;;;;;;;18.30;99.90;;;;;;5112281;28;20026;-73
2021/08/22 00:55:05;;;;;;;;;;;18.20;99.90;;;;;;5111303;28;20400;-72
2021/08/22 00:57:32;;;;;;;;;;;18.20;99.90;;;;;;5094462;28;20234;-71
2021/08/22 01:00:06;;;;;;;;;;;18.20;99.90;;;;;;5112141;28;19959;-72
2021/08/22 01:02:52;;;;;;;;;;;18.20;99.90;;;;;;5110491;28;19934;-72
2021/08/22 01:05:26;;;;;;;;;;;18.10;99.90;;;;;;5111427;28;19923;-72
2021/08/22 01:08:04;;;;;;;;;;;18.10;99.90;;;;;;5112470;28;19927;-71
2021/08/22 01:10:38;;;;;;;;;;;18.10;99.90;;;;;;5112313;28;19924;-72
2021/08/22 01:13:10;;;;;;;;;;;18.10;99.90;;;;;;5111551;28;19924;-72
2021/08/22 01:15:44;;;;;;;;;;;18.10;99.90;;;;;;5111864;28;20021;-72
2021/08/22 01:18:17;;;;;;;;;;;18.10;99.90;;;;;;5110466;28;19924;-72
2021/08/22 01:20:54;;;;;;;;;;;18.20;99.90;;;;;;5109807;28;20011;-72
2021/08/22 01:26:29;;;;;;;;;;;18.20;99.90;;;;;;5805151;23;19925;-72
2021/08/22 01:41:06;;;;;;;;;;;18.40;99.90;;;;;;5027635;28;20003;-74
2021/08/22 01:43:34;;;;;;;;;;;18.70;99.90;;;;;;5036137;28;19969;-73
2021/08/22 01:46:07;;;;;;;;;;;18.80;99.90;;;;;;5002778;28;20346;-73
2021/08/22 01:48:34;;;;;;;;;;;18.90;99.90;;;;;;5019589;28;19972;-73
2021/08/22 01:51:06;;;;;;;;;;;18.90;99.90;;;;;;5020147;28;20016;-74
2021/08/22 01:53:38;;;;;;;;;;;18.90;99.90;;;;;;5019158;28;20359;-73
2021/08/22 01:56:05;;;;;;;;;;;18.90;99.90;;;;;;5002228;28;20015;-74
2021/08/22 01:58:32;;;;;;;;;;;18.80;99.90;;;;;;5018665;28;20015;-73
2021/08/22 02:01:04;;;;;;;;;;;18.80;99.90;;;;;;5018828;28;20434;-74
2021/08/22 02:03:43;;;;;;;;;;;18.80;99.90;;;;;;5037041;28;19968;-72
2021/08/22 02:06:18;;;;;;;;;;;18.80;99.90;;;;;;5002941;28;20339;-73
2021/08/22 02:08:52;;;;;;;;;;;18.80;99.90;;;;;;5019095;28;19925;-74
2021/08/22 02:11:24;;;;;;;;;;;18.80;99.90;;;;;;5018610;28;19969;-74
2021/08/22 02:13:56;;;;;;;;;;;18.80;99.90;;;;;;5019725;28;20395;-74
2021/08/22 02:16:28;;;;;;;;;;;18.80;99.90;;;;;;5002692;28;19925;-74
2021/08/22 02:18:56;;;;;;;;;;;18.80;99.90;;;;;;5036048;28;20461;-73
2021/08/22 02:21:28;;;;;;;;;;;18.80;99.90;;;;;;5018112;28;19925;-74
2021/08/22 02:24:00;;;;;;;;;;;18.80;99.90;;;;;;5019157;28;20044;-74
2021/08/22 02:26:27;;;;;;;;;;;18.80;99.90;;;;;;5001478;28;19940;-74
2021/08/22 02:28:59;;;;;;;;;;;18.80;99.90;;;;;;5018090;28;19930;-74
2021/08/22 02:31:31;;;;;;;;;;;18.70;99.90;;;;;;5019002;28;20351;-73
2021/08/22 02:34:03;;;;;;;;;;;18.60;99.90;;;;;;5018249;28;20403;-74
2021/08/22 02:36:35;;;;;;;;;;;18.40;99.90;;;;;;5035530;28;20016;-74
2021/08/22 02:39:07;;;;;;;;;;;18.30;99.90;;;;;;5017728;28;20374;-73
2021/08/22 02:41:38;;;;;;;;;;;18.40;99.90;;;;;;5034968;28;19969;-73
2021/08/22 02:44:05;;;;;;;;;;;18.40;99.90;;;;;;5017226;28;20318;-74
2021/08/22 02:46:34;;;;;;;;;;;18.30;99.90;;;;;;5000509;28;20379;-73
2021/08/22 02:49:00;;;;;;;;;;;18.30;99.90;;;;;;5000985;28;19929;-74
2021/08/22 02:51:32;;;;;;;;;;;18.20;99.90;;;;;;5002313;28;19929;-73
2021/08/22 02:54:04;;;;;;;;;;;18.20;99.90;;;;;;5017862;28;20023;-73
2021/08/22 02:56:30;;;;;;;;;;;18.20;99.90;;;;;;5016873;28;19932;-74
2021/08/22 02:59:02;;;;;;;;;;;18.20;99.90;;;;;;5017647;28;19953;-74
2021/08/22 03:01:29;;;;;;;;;;;18.10;99.90;;;;;;5002254;28;19925;-74
2021/08/22 03:04:01;;;;;;;;;;;18.00;99.90;;;;;;5002451;28;19925;-74
2021/08/22 03:06:32;;;;;;;;;;;18.00;99.90;;;;;;5016844;28;19929;-74
2021/08/22 03:09:01;;;;;;;;;;;18.00;99.90;;;;;;5017097;28;19988;-74
2021/08/22 03:11:33;;;;;;;;;;;18.00;99.90;;;;;;5016343;28;20019;-74
2021/08/22 03:14:00;;;;;;;;;;;18.00;99.90;;;;;;5000259;28;20306;-74
2021/08/22 03:16:27;;;;;;;;;;;18.00;99.90;;;;;;5015982;28;19941;-74
2021/08/22 03:18:54;;;;;;;;;;;18.00;99.90;;;;;;5016695;28;20016;-74
2021/08/22 03:21:21;;;;;;;;;;;18.00;99.90;;;;;;5000602;28;19979;-72
2021/08/22 03:23:52;;;;;;;;;;;18.00;99.90;;;;;;5016529;28;20039;-74
2021/08/22 03:26:24;;;;;;;;;;;18.00;99.90;;;;;;5016664;28;20028;-74
2021/08/22 03:28:56;;;;;;;;;;;18.00;99.90;;;;;;5016941;28;19929;-74
2021/08/22 03:31:22;;;;;;;;;;;18.00;99.90;;;;;;5016474;28;19960;-74
2021/08/22 03:33:49;;;;;;;;;;;18.00;99.90;;;;;;5000567;28;20399;-74
2021/08/22 03:36:21;;;;;;;;;;;18.00;99.90;;;;;;5016499;28;20365;-73
2021/08/22 03:38:52;;;;;;;;;;;18.00;99.90;;;;;;5016886;28;20024;-73
2021/08/22 03:41:24;;;;;;;;;;;17.90;99.90;;;;;;5034804;28;19971;-72
2021/08/22 03:43:56;;;;;;;;;;;17.90;99.90;;;;;;5016886;28;20386;-74
2021/08/22 03:46:22;;;;;;;;;;;17.90;99.90;;;;;;5016761;28;19952;-73
2021/08/22 03:48:54;;;;;;;;;;;17.80;99.90;;;;;;5016672;28;19925;-74
2021/08/22 03:51:26;;;;;;;;;;;17.80;99.90;;;;;;5033851;28;19980;-74
2021/08/22 03:53:53;;;;;;;;;;;17.80;99.90;;;;;;5016275;28;19968;-73
2021/08/22 03:56:25;;;;;;;;;;;17.70;99.90;;;;;;5016331;28;19936;-74
2021/08/22 03:58:51;;;;;;;;;;;17.70;99.90;;;;;;4999997;28;19971;-74
2021/08/22 04:01:18;;;;;;;;;;;17.70;99.90;;;;;;5016850;28;19925;-74
2021/08/22 04:03:51;;;;;;;;;;;17.70;99.90;;;;;;5000693;28;20398;-73
2021/08/22 04:06:38;;;;;;;;;;;17.70;99.90;;;;;;5016507;28;20024;-72
2021/08/22 04:09:12;;;;;;;;;;;17.70;99.90;;;;;;5016990;28;19952;-74
2021/08/22 04:11:44;;;;;;;;;;;17.60;99.90;;;;;;5017635;28;19925;-74
2021/08/22 04:14:11;;;;;;;;;;;17.60;99.90;;;;;;5000680;28;19964;-73
2021/08/22 04:16:38;;;;;;;;;;;17.60;99.90;;;;;;5017164;28;20351;-73
2021/08/22 04:19:09;;;;;;;;;;;17.50;99.90;;;;;;5017514;28;19932;-73
2021/08/22 04:21:36;;;;;;;;;;;17.50;99.90;;;;;;5017598;28;19953;-73
2021/08/22 04:24:03;;;;;;;;;;;17.50;99.90;;;;;;5000647;28;19929;-72
2021/08/22 04:26:30;;;;;;;;;;;17.40;99.90;;;;;;5034173;28;19967;-73
2021/08/22 04:28:56;;;;;;;;;;;17.50;99.90;;;;;;5016765;28;19973;-73
2021/08/22 04:31:23;;;;;;;;;;;17.40;99.90;;;;;;5034370;28;19960;-73
2021/08/22 04:33:55;;;;;;;;;;;17.40;99.90;;;;;;5017535;28;20379;-73
2021/08/22 04:36:26;;;;;;;;;;;17.40;99.90;;;;;;5016335;28;19971;-74
2021/08/22 04:38:58;;;;;;;;;;;17.40;99.90;;;;;;5034626;28;20012;-73
2021/08/22 04:41:30;;;;;;;;;;;17.40;99.90;;;;;;5016717;28;20451;-74
2021/08/22 04:43:56;;;;;;;;;;;17.40;99.90;;;;;;5016141;28;19975;-73
2021/08/22 04:46:28;;;;;;;;;;;17.40;99.90;;;;;;5015723;28;20020;-73
2021/08/22 04:48:59;;;;;;;;;;;17.40;99.90;;;;;;5016738;28;20042;-73
2021/08/22 04:51:26;;;;;;;;;;;17.30;99.90;;;;;;5015645;28;20023;-74
2021/08/22 04:53:58;;;;;;;;;;;17.40;99.90;;;;;;5016583;28;20350;-73
2021/08/22 04:56:30;;;;;;;;;;;17.50;99.90;;;;;;5014981;28;20023;-73
2021/08/22 04:58:56;;;;;;;;;;;17.40;99.90;;;;;;4999008;28;19996;-74
2021/08/22 05:01:23;;;;;;;;;;;17.30;99.90;;;;;;5033083;28;19975;-73
2021/08/22 05:03:54;;;;;;;;;;;17.30;99.90;;;;;;5015271;28;20366;-73
2021/08/22 05:06:26;;;;;;;;;;;17.30;99.90;;;;;;5014705;28;19932;-74
2021/08/22 05:08:53;;;;;;;;;;;17.30;99.90;;;;;;5015158;28;20027;-72
2021/08/22 05:11:19;;;;;;;;;;;17.40;99.90;;;;;;5033101;28;20343;-74
2021/08/22 05:13:51;;;;;;;;;;;17.40;99.90;;;;;;5015197;28;20490;-73
2021/08/22 05:16:23;;;;;;;;;;;17.40;99.90;;;;;;5001024;28;19935;-73
2021/08/22 05:18:49;;;;;;;;;;;17.50;99.90;;;;;;5002760;28;19976;-74
2021/08/22 05:21:16;;;;;;;;;;;17.50;99.90;;;;;;5019428;28;19956;-74
2021/08/22 05:23:42;;;;;;;;;;;17.50;99.90;;;;;;5019319;28;20428;-74
2021/08/22 05:26:09;;;;;;;;;;;17.50;99.90;;;;;;5036373;28;19964;-73
2021/08/22 05:28:41;;;;;;;;;;;17.50;99.90;;;;;;5019056;28;20270;-73
2021/08/22 05:31:07;;;;;;;;;;;17.60;99.90;;;;;;5018739;28;19925;-72
2021/08/22 05:33:39;;;;;;;;;;;17.60;99.90;;;;;;5018888;28;19931;-73
2021/08/22 05:36:17;;;;;;;;;;;17.60;99.90;;;;;;5036255;28;19932;-73
2021/08/22 05:38:50;;;;;;;;;;;17.70;99.90;;;;;;5036808;28;19931;-74
2021/08/22 05:41:16;;;;;;;;;;;17.70;99.90;;;;;;5036907;28;19980;-74
2021/08/22 05:43:48;;;;;;;;;;;17.70;99.90;;;;;;5020084;28;19985;-73
2021/08/22 05:46:15;;;;;;;;;;;17.70;99.90;;;;;;5036362;28;19925;-74
2021/08/22 05:48:46;;;;;;;;;;;17.80;99.90;;;;;;5018726;28;20294;-73
2021/08/22 05:51:19;;;;;;;;;;;17.80;99.90;;;;;;5018962;28;20024;-73
2021/08/22 05:53:51;;;;;;;;;;;17.90;99.90;;;;;;5003340;28;20027;-72
2021/08/22 05:56:23;;;;;;;;;;;17.90;99.90;;;;;;5018648;28;20012;-72
2021/08/22 05:58:49;;;;;;;;;;;17.90;99.90;;;;;;5036237;28;19952;-73
2021/08/22 06:01:21;;;;;;;;;;;18.00;99.90;;;;;;5019479;28;19931;-71
2021/08/22 06:03:48;;;;;;;;;;;18.00;99.90;;;;;;5018772;28;19931;-73
2021/08/22 06:06:14;;;;;;;;;;;18.00;99.90;;;;;;5018499;28;19925;-74
2021/08/22 06:08:46;;;;;;;;;;;18.10;99.90;;;;;;5002452;28;20019;-73
2021/08/22 06:11:13;;;;;;;;;;;18.10;99.90;;;;;;5017999;28;20028;-73
2021/08/22 06:13:44;;;;;;;;;;;18.10;99.90;;;;;;5035479;28;20019;-73
2021/08/22 06:16:16;;;;;;;;;;;18.10;99.90;;;;;;5017509;28;19947;-73
2021/08/22 06:18:48;;;;;;;;;;;18.00;99.90;;;;;;5035134;28;19932;-73
2021/08/22 06:21:19;;;;;;;;;;;18.00;99.90;;;;;;5017514;28;20019;-73
2021/08/22 06:23:46;;;;;;;;;;;17.90;99.90;;;;;;5017455;28;20024;-74
2021/08/22 06:26:18;;;;;;;;;;;17.90;99.90;;;;;;5016600;28;19932;-74
2021/08/22 06:28:49;;;;;;;;;;;18.00;99.90;;;;;;5017233;28;19925;-73
2021/08/22 06:31:21;;;;;;;;;;;18.00;99.90;;;;;;5017289;28;19925;-73
2021/08/22 06:33:52;;;;;;;;;;;18.10;99.90;;;;;;5017130;28;20029;-74
2021/08/22 06:36:24;;;;;;;;;;;18.30;99.90;;;;;;5016769;28;20403;-74
2021/08/22 06:38:51;;;;;;;;;;;18.30;99.90;;;;;;5017218;28;19963;-73
2021/08/22 06:41:17;;;;;;;;;;;18.40;99.90;;;;;;5000736;28;19960;-74
2021/08/22 06:43:44;;;;;;;;;;;18.50;99.90;;;;;;5017089;28;20028;-72
2021/08/22 06:46:16;;;;;;;;;;;18.50;99.90;;;;;;5016300;28;20035;-74
2021/08/22 06:48:42;;;;;;;;;;;18.60;99.90;;;;;;5016615;28;19931;-72
2021/08/22 06:51:09;;;;;;;;;;;18.60;99.90;;;;;;5016984;28;20024;-73
2021/08/22 06:53:40;;;;;;;;;;;18.60;99.90;;;;;;5016775;28;20032;-72
2021/08/22 06:56:12;;;;;;;;;;;18.60;99.90;;;;;;5016362;28;20024;-73
2021/08/22 06:58:39;;;;;;;;;;;18.60;99.90;;;;;;5016498;28;19961;-73
2021/08/22 07:01:11;;;;;;;;;;;18.60;99.90;;;;;;5016055;28;19925;-74
2021/08/22 07:03:43;;;;;;;;;;;18.60;99.90;;;;;;5016769;28;19928;-73
2021/08/22 07:06:16;;;;;;;;;;;18.60;99.90;;;;;;5016521;28;19932;-73
2021/08/22 07:08:47;;;;;;;;;;;18.60;99.90;;;;;;5000310;28;20357;-73
2021/08/22 07:11:19;;;;;;;;;;;18.60;99.90;;;;;;5000449;28;20346;-73
2021/08/22 07:13:50;;;;;;;;;;;18.60;99.90;;;;;;5017184;28;20023;-73
2021/08/22 07:16:17;;;;;;;;;;;18.60;99.90;;;;;;4999363;28;20019;-74
2021/08/22 07:18:44;;;;;;;;;;;18.60;99.90;;;;;;5016354;28;20028;-74
2021/08/22 07:21:15;;;;;;;;;;;18.60;99.90;;;;;;5016729;28;20477;-73
2021/08/22 07:23:47;;;;;;;;;;;18.60;99.90;;;;;;5035226;28;20020;-73
2021/08/22 07:26:14;;;;;;;;;;;18.70;99.90;;;;;;5016947;28;20331;-73
2021/08/22 07:28:41;;;;;;;;;;;18.70;99.90;;;;;;5016618;28;19926;-73
2021/08/22 07:31:12;;;;;;;;;;;18.60;99.90;;;;;;5016210;28;19925;-74
2021/08/22 07:33:39;;;;;;;;;;;18.60;99.90;;;;;;5016097;28;19972;-74
2021/08/22 07:36:06;;;;;;;;;;;18.60;99.90;;;;;;5015665;28;19964;-73
2021/08/22 07:38:38;;;;;;;;;;;18.70;99.90;;;;;;5032400;28;19925;-74
2021/08/22 07:41:09;;;;;;;;;;;18.90;99.90;;;;;;5015350;28;19925;-73
2021/08/22 07:43:36;;;;;;;;;;;19.00;99.90;;;;;;5032768;28;19940;-73
2021/08/22 07:46:08;;;;;;;;;;;19.00;99.90;;;;;;5015076;28;20027;-74
2021/08/22 07:48:39;;;;;;;;;;;19.10;99.90;;;;;;5015793;28;19971;-73
2021/08/22 07:51:06;;;;;;;;;;;19.10;99.90;;;;;;5015020;28;19925;-73
2021/08/22 07:53:38;;;;;;;;;;;19.10;99.90;;;;;;5014949;28;19928;-74
2021/08/22 07:56:05;;;;;;;;;;;19.20;99.90;;;;;;4998388;28;20455;-73
2021/08/22 07:58:31;;;;;;;;;;;19.20;99.90;;;;;;5014984;28;20023;-73
2021/08/22 08:01:03;;;;;;;;;;;19.30;99.90;;;;;;5014850;28;20044;-73
2021/08/22 08:03:30;;;;;;;;;;;19.20;99.90;;;;;;5015340;28;20417;-73
2021/08/22 08:05:56;;;;;;;;;;;19.30;99.90;;;;;;5015007;28;19980;-74
2021/08/22 08:08:28;;;;;;;;;;;19.30;99.90;;;;;;4999785;28;19925;-73
2021/08/22 08:10:55;;;;;;;;;;;19.40;99.90;;;;;;4998943;28;19963;-73
2021/08/22 08:13:22;;;;;;;;;;;19.40;99.90;;;;;;4999016;28;20427;-73
2021/08/22 08:15:48;;;;;;;;;;;19.40;99.90;;;;;;5032448;28;19964;-73
2021/08/22 08:18:20;;;;;;;;;;;19.50;99.90;;;;;;5015780;28;20032;-73
2021/08/22 08:20:47;;;;;;;;;;;19.70;99.90;;;;;;5015053;28;19932;-73
2021/08/22 08:23:13;;;;;;;;;;;19.80;99.90;;;;;;5015079;28;19933;-73
2021/08/22 08:25:40;;;;;;;;;;;19.90;99.90;;;;;;4998451;28;20303;-73
2021/08/22 08:28:13;;;;;;;;;;;20.00;99.90;;;;;;5014026;28;21348;-73
2021/08/22 08:30:45;;;;;;;;;;;20.00;99.90;;;;;;4999237;28;20298;-73
2021/08/22 08:33:12;;;;;;;;;;;20.00;99.90;;;;;;5032770;28;19980;-73
2021/08/22 08:35:39;;;;;;;;;;;20.00;99.90;;;;;;4997819;28;19972;-72
2021/08/22 08:38:11;;;;;;;;;;;20.10;99.90;;;;;;5031830;28;20028;-74
2021/08/22 08:40:43;;;;;;;;;;;20.20;99.90;;;;;;4998442;28;19931;-74
2021/08/22 08:43:15;;;;;;;;;;;20.30;99.90;;;;;;5014026;28;20458;-74
2021/08/22 08:45:46;;;;;;;;;;;20.40;99.90;;;;;;4997525;28;20031;-71
2021/08/22 08:48:15;;;;;;;;;;;20.50;99.90;;;;;;5013942;28;20023;-73
2021/08/22 08:50:58;;;;;;;;;;;20.60;99.90;;;;;;5031545;28;20291;-73
2021/08/22 08:53:41;;;;;;;;;;;20.70;99.90;;;;;;5013892;28;19963;-73
2021/08/22 08:56:14;;;;;;;;;;;20.80;99.90;;;;;;5014470;28;19933;-74
2021/08/22 08:58:40;;;;;;;;;;;20.90;99.90;;;;;;5031580;28;20032;-74
2021/08/22 09:01:07;;;;;;;;;;;21.00;99.90;;;;;;5031494;28;19929;-72
2021/08/22 09:03:58;;;;;;;;;;;21.10;99.90;;;;;;5013644;28;20024;-73
2021/08/22 09:06:48;;;;;;;;;;;21.10;99.90;;;;;;5031322;28;19929;-73
2021/08/22 09:09:31;;;;;;;;;;;21.10;99.90;;;;;;4997152;28;19956;-72
2021/08/22 09:12:01;;;;;;;;;;;21.20;99.90;;;;;;5031233;28;19975;-73
2021/08/22 09:14:46;;;;;;;;;;;21.30;99.90;;;;;;5013698;28;20015;-72
2021/08/22 09:17:32;;;;;;;;;;;21.30;99.90;;;;;;5013590;28;20151;-74
2021/08/22 09:20:22;;;;;;;;;;;21.30;99.90;;;;;;5031569;28;19929;-73
2021/08/22 09:23:13;;;;;;;;;;;21.50;99.90;;;;;;5013586;28;19935;-74
2021/08/22 09:25:45;;;;;;;;;;;21.50;99.90;;;;;;5031086;28;19929;-72
2021/08/22 09:28:32;;;;;;;;;;;21.50;99.90;;;;;;4998044;28;20020;-73
2021/08/22 09:31:23;;;;;;;;;;;21.60;99.90;;;;;;5013549;28;19957;-74
2021/08/22 09:34:08;;;;;;;;;;;21.60;99.90;;;;;;4998135;28;19929;-73
2021/08/22 09:36:59;;;;;;;;;;;21.60;99.90;;;;;;5013903;28;19967;-73
2021/08/22 09:39:28;;;;;;;;;;;21.50;99.90;;;;;;5014249;28;20375;-72
2021/08/22 09:42:19;;;;;;;;;;;21.50;99.90;;;;;;5031886;28;20529;-73
2021/08/22 09:44:49;;;;;;;;;;;21.50;99.90;;;;;;5014132;28;20371;-74
2021/08/22 09:47:45;;;;;;;;;;;21.40;99.90;;;;;;5031545;28;20474;-73
2021/08/22 09:50:26;;;;;;;;;;;21.40;99.90;;;;;;5013305;28;19925;-73
2021/08/22 09:53:36;;;;;;;;;;;21.40;99.90;;;;;;5031913;28;20360;-74
2021/08/22 09:56:11;;;;;;;;;;;21.40;99.90;;;;;;4950851;29;19966;-73
2021/08/22 09:58:57;;;;;;;;;;;21.40;99.90;;;;;;4935464;29;20404;-73
2021/08/22 10:01:43;;;;;;;;;;;21.40;99.90;;;;;;5013732;28;19968;-73
2021/08/22 10:04:15;;;;;;;;;;;21.40;99.90;;;;;;5017664;28;20019;-73
2021/08/22 10:06:56;;;;;;;;;;;21.40;99.90;;;;;;5001812;28;20629;-74
2021/08/22 10:09:30;;;;;;;;;;;21.40;99.90;;;;;;5035389;28;19979;-73
2021/08/22 10:12:03;;;;;;;;;;;21.40;99.90;;;;;;5014421;28;19969;-73
2021/08/22 10:14:38;;;;;;;;;;;21.40;99.90;;;;;;5001556;28;20035;-73
2021/08/22 10:17:18;;;;;;;;;;;21.40;99.90;;;;;;5017330;28;19925;-73
2021/08/22 10:19:46;;;;;;;;;;;21.30;99.90;;;;;;5017488;28;20016;-74
2021/08/22 10:22:30;;;;;;;;;;;21.40;99.90;;;;;;5001752;28;20359;-73
2021/08/22 10:25:08;;;;;;;;;;;21.40;99.90;;;;;;5034764;28;20028;-74
2021/08/22 10:27:45;;;;;;;;;;;21.50;99.90;;;;;;5017376;28;20347;-73
2021/08/22 10:30:21;;;;;;;;;;;21.60;99.90;;;;;;5034971;28;19971;-74
2021/08/22 10:32:56;;;;;;;;;;;21.50;99.90;;;;;;5017026;28;19968;-71
2021/08/22 10:35:23;;;;;;;;;;;21.50;99.90;;;;;;5016805;28;19925;-73
2021/08/22 10:37:55;;;;;;;;;;;21.60;99.90;;;;;;5018010;28;20027;-74
2021/08/22 10:40:28;;;;;;;;;;;21.60;99.90;;;;;;5034614;28;20356;-73
2021/08/22 10:43:04;;;;;;;;;;;21.60;99.90;;;;;;5034672;28;20036;-73
2021/08/22 10:45:40;;;;;;;;;;;21.60;99.90;;;;;;5016677;28;19963;-73
2021/08/22 10:48:21;;;;;;;;;;;21.70;99.90;;;;;;5034787;28;20012;-73
2021/08/22 10:51:08;;;;;;;;;;;21.60;99.90;;;;;;5016992;28;19964;-73
2021/08/22 10:53:38;;;;;;;;;;;21.50;99.90;;;;;;5016983;28;19932;-73
2021/08/22 10:56:22;;;;;;;;;;;21.50;99.90;;;;;;5034109;28;19975;-73
2021/08/22 10:58:58;;;;;;;;;;;21.50;99.90;;;;;;5034088;28;20024;-73
2021/08/22 11:01:25;;;;;;;;;;;21.50;99.90;;;;;;5016660;28;19937;-73
2021/08/22 11:04:04;;;;;;;;;;;21.50;99.90;;;;;;5016588;28;20464;-73
2021/08/22 11:06:32;;;;;;;;;;;21.70;99.90;;;;;;5033756;28;20410;-72
2021/08/22 11:09:04;;;;;;;;;;;21.70;99.90;;;;;;5034089;28;19926;-73
2021/08/22 11:11:31;;;;;;;;;;;21.80;99.90;;;;;;5016249;28;20020;-73
2021/08/22 11:14:03;;;;;;;;;;;22.00;99.90;;;;;;5032768;28;19956;-73
2021/08/22 11:16:38;;;;;;;;;;;22.00;99.90;;;;;;5034161;28;19929;-73
2021/08/22 11:19:10;;;;;;;;;;;22.00;99.90;;;;;;5000748;28;20375;-73
2021/08/22 11:21:44;;;;;;;;;;;22.00;99.90;;;;;;5000808;28;19925;-71
2021/08/22 11:24:12;;;;;;;;;;;22.00;99.90;;;;;;5016144;28;20478;-74
2021/08/22 11:26:44;;;;;;;;;;;22.00;99.90;;;;;;5000209;28;19957;-74
2021/08/22 11:29:10;;;;;;;;;;;22.10;99.90;;;;;;5033622;28;19968;-74
2021/08/22 11:31:37;;;;;;;;;;;22.10;99.90;;;;;;5015879;28;20035;-73
2021/08/22 11:34:10;;;;;;;;;;;22.00;99.90;;;;;;5016048;28;19932;-74
2021/08/22 11:36:42;;;;;;;;;;;22.00;99.90;;;;;;5033341;28;20387;-73
2021/08/22 11:39:13;;;;;;;;;;;22.10;99.90;;;;;;5016073;28;20020;-73
2021/08/22 11:41:45;;;;;;;;;;;22.00;99.90;;;;;;5015985;28;19971;-73
2021/08/22 11:44:21;;;;;;;;;;;21.80;99.90;;;;;;5016063;28;20019;-73
2021/08/22 11:46:53;;;;;;;;;;;21.90;99.90;;;;;;5015380;28;20056;-73
2021/08/22 11:49:25;;;;;;;;;;;21.80;99.90;;;;;;5015734;28;19975;-74
2021/08/22 11:51:57;;;;;;;;;;;21.90;99.90;;;;;;5015408;28;19925;-73
2021/08/22 11:54:24;;;;;;;;;;;22.00;99.90;;;;;;5033169;28;20092;-74
2021/08/22 11:57:15;;;;;;;;;;;22.10;99.90;;;;;;5032851;28;19975;-74
2021/08/22 11:59:41;;;;;;;;;;;22.10;99.90;;;;;;5015393;28;19933;-74
2021/08/22 12:02:26;;;;;;;;;;;22.20;99.90;;;;;;5015431;28;19956;-74
2021/08/22 12:05:12;;;;;;;;;;;22.20;99.90;;;;;;4998879;28;20020;-73
2021/08/22 12:07:45;;;;;;;;;;;22.30;99.90;;;;;;4999833;28;19931;-73
2021/08/22 12:10:21;;;;;;;;;;;22.10;99.90;;;;;;5015326;28;19933;-73
2021/08/22 12:12:48;;;;;;;;;;;22.10;99.90;;;;;;5015067;28;19968;-73
2021/08/22 12:15:30;;;;;;;;;;;22.10;99.90;;;;;;5015665;28;19979;-73
2021/08/22 12:18:14;;;;;;;;;;;22.00;99.90;;;;;;5015102;28;20016;-73
2021/08/22 12:20:41;;;;;;;;;;;22.00;99.90;;;;;;5033018;28;20352;-73
2021/08/22 12:23:13;;;;;;;;;;;22.00;99.90;;;;;;5015391;28;19987;-72
2021/08/22 12:25:44;;;;;;;;;;;22.10;99.90;;;;;;5031895;28;20482;-73
2021/08/22 12:28:26;;;;;;;;;;;22.10;99.90;;;;;;5014907;28;19929;-73
2021/08/22 12:31:07;;;;;;;;;;;22.10;99.90;;;;;;5014858;28;20460;-74
2021/08/22 12:33:35;;;;;;;;;;;22.10;99.90;;;;;;5015101;28;19998;-73
2021/08/22 12:36:03;;;;;;;;;;;22.10;99.90;;;;;;5014595;28;20111;-73
2021/08/22 12:38:37;;;;;;;;;;;22.00;99.90;;;;;;5014847;28;19948;-73
2021/08/22 12:41:24;;;;;;;;;;;21.90;99.90;;;;;;5032430;28;19987;-73
2021/08/22 12:43:57;;;;;;;;;;;22.00;99.90;;;;;;5015670;28;19929;-73
2021/08/22 12:46:24;;;;;;;;;;;22.00;99.90;;;;;;4998264;28;19925;-72
2021/08/22 12:48:56;;;;;;;;;;;22.10;99.90;;;;;;5032187;28;20406;-73
2021/08/22 12:51:28;;;;;;;;;;;22.00;99.90;;;;;;5014809;28;20367;-73
2021/08/22 12:54:00;;;;;;;;;;;22.00;99.90;;;;;;5032307;28;19928;-74
2021/08/22 12:56:26;;;;;;;;;;;21.70;99.90;;;;;;5014624;28;20024;-73
2021/08/22 12:58:58;;;;;;;;;;;21.50;99.90;;;;;;5032370;28;19972;-73
2021/08/22 13:01:30;;;;;;;;;;;21.20;99.90;;;;;;5014782;28;19968;-73
2021/08/22 13:03:57;;;;;;;;;;;20.80;99.90;;;;;;5014474;28;19925;-73
2021/08/22 13:06:24;;;;;;;;;;;20.70;99.90;;;;;;5014241;28;19925;-73
2021/08/22 13:08:56;;;;;;;;;;;20.50;99.90;;;;;;5016251;28;20036;-73
2021/08/22 13:11:23;;;;;;;;;;;20.40;99.90;;;;;;5032773;28;19963;-74
2021/08/22 13:13:51;;;;;;;;;;;20.20;99.90;;;;;;5015733;28;19935;-73
2021/08/22 13:16:23;;;;;;;;;;;20.00;99.90;;;;;;5015354;28;19960;-74
2021/08/22 13:18:55;;;;;;;;;;;20.00;99.90;;;;;;5016621;28;19931;-74
2021/08/22 13:21:27;;;;;;;;;;;19.90;99.90;;;;;;5014803;28;20354;-74
2021/08/22 13:23:53;;;;;;;;;;;19.80;99.90;;;;;;5014662;28;20391;-74
2021/08/22 13:26:26;;;;;;;;;;;19.50;99.90;;;;;;5016101;28;19925;-73
2021/08/22 13:28:57;;;;;;;;;;;19.30;99.90;;;;;;5033371;28;19960;-73
2021/08/22 13:31:29;;;;;;;;;;;19.20;99.90;;;;;;5033118;28;19989;-73
2021/08/22 13:33:56;;;;;;;;;;;19.20;99.90;;;;;;5016744;28;20028;-74
2021/08/22 13:36:27;;;;;;;;;;;19.10;99.90;;;;;;5017305;28;19999;-74
2021/08/22 13:38:54;;;;;;;;;;;19.10;99.90;;;;;;5019844;28;20430;-74
2021/08/22 13:41:26;;;;;;;;;;;19.20;99.90;;;;;;5020630;28;19971;-74
2021/08/22 13:43:53;;;;;;;;;;;19.20;99.90;;;;;;5037772;28;19925;-74
2021/08/22 13:46:24;;;;;;;;;;;19.30;99.90;;;;;;5037580;28;20020;-74
2021/08/22 13:48:58;;;;;;;;;;;19.40;99.90;;;;;;5019724;28;19984;-74
2021/08/22 13:51:31;;;;;;;;;;;19.50;99.90;;;;;;5002645;28;19968;-72
2021/08/22 13:54:03;;;;;;;;;;;19.50;99.90;;;;;;5019678;28;20027;-74
2021/08/22 13:56:29;;;;;;;;;;;19.60;99.90;;;;;;5002839;28;20361;-74
2021/08/22 13:59:02;;;;;;;;;;;19.80;99.90;;;;;;5038013;28;19956;-74
2021/08/22 14:01:34;;;;;;;;;;;19.90;99.90;;;;;;5021502;28;20506;-74
2021/08/22 14:04:05;;;;;;;;;;;19.70;99.90;;;;;;5020729;28;19965;-73
2021/08/22 14:06:37;;;;;;;;;;;19.60;99.90;;;;;;5005503;28;19929;-73
2021/08/22 14:09:09;;;;;;;;;;;19.60;99.90;;;;;;5039017;28;20233;-74
2021/08/22 14:11:40;;;;;;;;;;;19.80;99.90;;;;;;5005097;28;20023;-74
2021/08/22 14:14:12;;;;;;;;;;;19.80;99.90;;;;;;5003585;28;20027;-72
2021/08/22 14:16:39;;;;;;;;;;;19.90;99.90;;;;;;5019320;28;20028;-74
2021/08/22 14:19:07;;;;;;;;;;;19.90;99.90;;;;;;5019396;28;20106;-74
2021/08/22 14:21:35;;;;;;;;;;;19.90;99.90;;;;;;5019158;28;19975;-73
2021/08/22 14:24:06;;;;;;;;;;;19.80;99.90;;;;;;5019327;28;19956;-73
2021/08/22 14:26:33;;;;;;;;;;;19.70;99.90;;;;;;5018180;28;20017;-74
2021/08/22 14:29:00;;;;;;;;;;;19.70;99.90;;;;;;5017802;28;19959;-73
2021/08/22 14:31:31;;;;;;;;;;;19.70;99.90;;;;;;5017568;28;20012;-74
2021/08/22 14:33:58;;;;;;;;;;;19.60;99.90;;;;;;5001360;28;19947;-74
2021/08/22 14:36:30;;;;;;;;;;;19.50;99.90;;;;;;5017206;28;19967;-74
2021/08/22 14:39:02;;;;;;;;;;;19.40;99.90;;;;;;5035816;28;20375;-74
2021/08/22 14:41:34;;;;;;;;;;;19.40;99.90;;;;;;5018214;28;20346;-74
2021/08/22 14:44:06;;;;;;;;;;;19.20;99.90;;;;;;5018357;28;19964;-73
2021/08/22 14:46:37;;;;;;;;;;;19.10;99.90;;;;;;5002394;28;20423;-72
2021/08/22 14:49:09;;;;;;;;;;;19.00;99.90;;;;;;5018841;28;19997;-73
2021/08/22 14:51:36;;;;;;;;;;;18.90;99.90;;;;;;5019272;28;19965;-73
2021/08/22 14:54:08;;;;;;;;;;;18.80;99.90;;;;;;5036631;28;19960;-74
2021/08/22 14:56:40;;;;;;;;;;;18.70;99.90;;;;;;5017877;28;20023;-74
2021/08/22 14:59:06;;;;;;;;;;;18.70;99.90;;;;;;5018012;28;19990;-73